sensor_id;sensor_type;location;lat;lon;timestamp;P1;durP1;ratioP1;P2;durP2;ratioP2
56102;SDS011;41970;48.774;9.280;2023-10-13T00:01:54;6.13;;;4.37;;
56102;SDS011;41970;48.774;9.280;2023-10-13T00:04:21;5.57;;;3.67;;
56102;SDS011;41970;48.774;9.280;2023-10-13T00:06:50;4.13;;;3.77;;
56102;SDS011;41970;48.774;9.280;2023-10-13T00:09:21;4.60;;;3.50;;
56102;SDS011;41970;48.774;9.280;2023-10-13T00:11:54;5.60;;;5.00;;
56102;SDS011;41970;48.774;9.280;2023-10-13T00:14:21;6.93;;;4.40;;
56102;SDS011;41970;48.774;9.280;2023-10-13T00:16:47;4.60;;;4.10;;
56102;SDS011;41970;48.774;9.280;2023-10-13T00:19:32;4.90;;;3.57;;
56102;SDS011;41970;48.774;9.280;2023-10-13T00:22:14;10.60;;;4.27;;
56102;SDS011;41970;48.774;9.280;2023-10-13T00:24:42;5.80;;;4.63;;
56102;SDS011;41970;48.774;9.280;2023-10-13T00:27:14;4.80;;;4.10;;
56102;SDS011;41970;48.774;9.280;2023-10-13T00:32:51;6.90;;;4.47;;
56102;SDS011;41970;48.774;9.280;2023-10-13T00:35:25;7.00;;;5.13;;
56102;SDS011;41970;48.774;9.280;2023-10-13T00:37:57;8.67;;;4.20;;
56102;SDS011;41970;48.774;9.280;2023-10-13T00:40:31;6.83;;;3.83;;
56102;SDS011;41970;48.774;9.280;2023-10-13T00:42:57;8.03;;;4.63;;
56102;SDS011;41970;48.774;9.280;2023-10-13T00:45:42;6.60;;;4.83;;
56102;SDS011;41970;48.774;9.280;2023-10-13T00:48:25;6.00;;;3.80;;
56102;SDS011;41970;48.774;9.280;2023-10-13T00:50:57;5.20;;;4.60;;
56102;SDS011;41970;48.774;9.280;2023-10-13T00:53:34;6.90;;;4.30;;
56102;SDS011;41970;48.774;9.280;2023-10-13T00:56:07;4.70;;;4.00;;
56102;SDS011;41970;48.774;9.280;2023-10-13T00:58:34;8.60;;;4.63;;
56102;SDS011;41970;48.774;9.280;2023-10-13T01:01:03;7.07;;;4.13;;
56102;SDS011;41970;48.774;9.280;2023-10-13T01:03:47;4.77;;;4.00;;
56102;SDS011;41970;48.774;9.280;2023-10-13T01:06:15;6.10;;;4.70;;
56102;SDS011;41970;48.774;9.280;2023-10-13T01:08:43;7.23;;;4.17;;
56102;SDS011;41970;48.774;9.280;2023-10-13T01:11:16;6.97;;;4.20;;
56102;SDS011;41970;48.774;9.280;2023-10-13T01:13:43;8.07;;;4.00;;
56102;SDS011;41970;48.774;9.280;2023-10-13T01:16:09;5.77;;;4.30;;
56102;SDS011;41970;48.774;9.280;2023-10-13T01:18:35;6.53;;;5.50;;
56102;SDS011;41970;48.774;9.280;2023-10-13T01:21:14;5.50;;;4.20;;
56102;SDS011;41970;48.774;9.280;2023-10-13T01:23:45;5.20;;;4.13;;
56102;SDS011;41970;48.774;9.280;2023-10-13T01:26:13;5.53;;;3.67;;
56102;SDS011;41970;48.774;9.280;2023-10-13T01:28:46;7.27;;;3.97;;
56102;SDS011;41970;48.774;9.280;2023-10-13T01:31:13;5.50;;;3.83;;
56102;SDS011;41970;48.774;9.280;2023-10-13T01:33:49;4.53;;;4.00;;
56102;SDS011;41970;48.774;9.280;2023-10-13T01:36:19;5.77;;;4.00;;
56102;SDS011;41970;48.774;9.280;2023-10-13T01:38:48;6.40;;;3.97;;
56102;SDS011;41970;48.774;9.280;2023-10-13T01:41:16;9.40;;;4.37;;
56102;SDS011;41970;48.774;9.280;2023-10-13T01:43:42;4.80;;;3.87;;
56102;SDS011;41970;48.774;9.280;2023-10-13T01:46:08;5.30;;;3.67;;
56102;SDS011;41970;48.774;9.280;2023-10-13T01:48:35;4.40;;;3.87;;
56102;SDS011;41970;48.774;9.280;2023-10-13T01:51:05;6.97;;;4.83;;
56102;SDS011;41970;48.774;9.280;2023-10-13T01:53:35;4.80;;;4.23;;
56102;SDS011;41970;48.774;9.280;2023-10-13T01:56:01;5.67;;;4.37;;
56102;SDS011;41970;48.774;9.280;2023-10-13T01:58:30;4.80;;;4.40;;
56102;SDS011;41970;48.774;9.280;2023-10-13T02:00:56;6.70;;;4.60;;
56102;SDS011;41970;48.774;9.280;2023-10-13T02:03:24;6.40;;;4.20;;
56102;SDS011;41970;48.774;9.280;2023-10-13T02:05:54;5.70;;;4.50;;
56102;SDS011;41970;48.774;9.280;2023-10-13T02:08:23;5.83;;;5.20;;
56102;SDS011;41970;48.774;9.280;2023-10-13T02:10:52;5.30;;;4.10;;
56102;SDS011;41970;48.774;9.280;2023-10-13T02:13:22;5.40;;;4.27;;
56102;SDS011;41970;48.774;9.280;2023-10-13T02:15:52;5.23;;;4.70;;
56102;SDS011;41970;48.774;9.280;2023-10-13T02:18:21;8.60;;;4.93;;
56102;SDS011;41970;48.774;9.280;2023-10-13T02:21:02;7.43;;;4.03;;
56102;SDS011;41970;48.774;9.280;2023-10-13T02:23:37;7.03;;;4.60;;
56102;SDS011;41970;48.774;9.280;2023-10-13T02:26:09;5.77;;;4.13;;
56102;SDS011;41970;48.774;9.280;2023-10-13T02:28:40;7.03;;;4.77;;
56102;SDS011;41970;48.774;9.280;2023-10-13T02:31:06;4.17;;;3.77;;
56102;SDS011;41970;48.774;9.280;2023-10-13T02:33:32;6.30;;;4.13;;
56102;SDS011;41970;48.774;9.280;2023-10-13T02:35:59;7.33;;;4.63;;
56102;SDS011;41970;48.774;9.280;2023-10-13T02:38:29;7.83;;;4.20;;
56102;SDS011;41970;48.774;9.280;2023-10-13T02:41:13;8.00;;;5.27;;
56102;SDS011;41970;48.774;9.280;2023-10-13T02:43:45;5.50;;;5.00;;
56102;SDS011;41970;48.774;9.280;2023-10-13T02:46:11;10.77;;;4.27;;
56102;SDS011;41970;48.774;9.280;2023-10-13T02:48:39;6.57;;;4.20;;
56102;SDS011;41970;48.774;9.280;2023-10-13T02:51:05;7.70;;;4.40;;
56102;SDS011;41970;48.774;9.280;2023-10-13T02:53:43;6.63;;;4.50;;
56102;SDS011;41970;48.774;9.280;2023-10-13T02:56:14;5.80;;;4.50;;
56102;SDS011;41970;48.774;9.280;2023-10-13T02:58:51;9.20;;;5.00;;
56102;SDS011;41970;48.774;9.280;2023-10-13T03:01:29;6.20;;;4.90;;
56102;SDS011;41970;48.774;9.280;2023-10-13T03:04:02;6.53;;;4.60;;
56102;SDS011;41970;48.774;9.280;2023-10-13T03:06:29;7.80;;;4.80;;
56102;SDS011;41970;48.774;9.280;2023-10-13T03:08:58;6.13;;;4.60;;
56102;SDS011;41970;48.774;9.280;2023-10-13T03:11:38;6.40;;;4.40;;
56102;SDS011;41970;48.774;9.280;2023-10-13T03:14:12;9.10;;;5.27;;
56102;SDS011;41970;48.774;9.280;2023-10-13T03:16:50;11.03;;;5.63;;
56102;SDS011;41970;48.774;9.280;2023-10-13T03:19:16;7.10;;;5.47;;
56102;SDS011;41970;48.774;9.280;2023-10-13T03:21:44;7.27;;;4.83;;
56102;SDS011;41970;48.774;9.280;2023-10-13T03:24:19;5.07;;;4.40;;
56102;SDS011;41970;48.774;9.280;2023-10-13T03:26:48;5.10;;;4.60;;
56102;SDS011;41970;48.774;9.280;2023-10-13T03:29:17;7.30;;;5.00;;
56102;SDS011;41970;48.774;9.280;2023-10-13T03:31:47;5.63;;;4.93;;
56102;SDS011;41970;48.774;9.280;2023-10-13T03:34:28;9.63;;;5.13;;
56102;SDS011;41970;48.774;9.280;2023-10-13T03:36:54;7.27;;;5.43;;
56102;SDS011;41970;48.774;9.280;2023-10-13T03:39:22;8.40;;;4.43;;
56102;SDS011;41970;48.774;9.280;2023-10-13T03:41:56;7.30;;;4.90;;
56102;SDS011;41970;48.774;9.280;2023-10-13T03:44:22;5.37;;;4.10;;
56102;SDS011;41970;48.774;9.280;2023-10-13T03:46:48;7.97;;;4.63;;
56102;SDS011;41970;48.774;9.280;2023-10-13T03:49:15;4.40;;;4.00;;
56102;SDS011;41970;48.774;9.280;2023-10-13T03:51:46;5.37;;;4.60;;
56102;SDS011;41970;48.774;9.280;2023-10-13T03:54:13;5.53;;;4.40;;
56102;SDS011;41970;48.774;9.280;2023-10-13T03:56:41;5.30;;;4.80;;
56102;SDS011;41970;48.774;9.280;2023-10-13T03:59:09;4.83;;;4.37;;
56102;SDS011;41970;48.774;9.280;2023-10-13T04:01:38;6.13;;;4.70;;
56102;SDS011;41970;48.774;9.280;2023-10-13T04:04:17;6.60;;;4.43;;
56102;SDS011;41970;48.774;9.280;2023-10-13T04:07:06;4.33;;;3.70;;
56102;SDS011;41970;48.774;9.280;2023-10-13T04:09:35;5.03;;;4.53;;
56102;SDS011;41970;48.774;9.280;2023-10-13T04:12:05;6.13;;;5.57;;
56102;SDS011;41970;48.774;9.280;2023-10-13T04:14:55;8.13;;;5.47;;
56102;SDS011;41970;48.774;9.280;2023-10-13T04:17:21;6.17;;;5.33;;
56102;SDS011;41970;48.774;9.280;2023-10-13T04:19:54;5.70;;;5.03;;
56102;SDS011;41970;48.774;9.280;2023-10-13T04:22:31;7.40;;;4.53;;
56102;SDS011;41970;48.774;9.280;2023-10-13T04:25:22;6.43;;;5.40;;
56102;SDS011;41970;48.774;9.280;2023-10-13T04:28:08;5.33;;;4.57;;
56102;SDS011;41970;48.774;9.280;2023-10-13T04:33:22;6.93;;;4.67;;
56102;SDS011;41970;48.774;9.280;2023-10-13T04:39:01;6.50;;;4.37;;
56102;SDS011;41970;48.774;9.280;2023-10-13T04:41:31;4.80;;;4.17;;
56102;SDS011;41970;48.774;9.280;2023-10-13T04:44:07;7.17;;;4.57;;
56102;SDS011;41970;48.774;9.280;2023-10-13T04:46:53;5.03;;;4.27;;
56102;SDS011;41970;48.774;9.280;2023-10-13T04:49:33;6.97;;;5.23;;
56102;SDS011;41970;48.774;9.280;2023-10-13T04:52:00;8.40;;;4.73;;
56102;SDS011;41970;48.774;9.280;2023-10-13T04:54:33;5.00;;;4.43;;
56102;SDS011;41970;48.774;9.280;2023-10-13T04:57:19;5.27;;;4.33;;
56102;SDS011;41970;48.774;9.280;2023-10-13T05:00:05;6.57;;;4.50;;
56102;SDS011;41970;48.774;9.280;2023-10-13T05:05:19;7.53;;;5.53;;
56102;SDS011;41970;48.774;9.280;2023-10-13T05:08:04;8.70;;;5.00;;
56102;SDS011;41970;48.774;9.280;2023-10-13T05:10:48;7.60;;;5.57;;
56102;SDS011;41970;48.774;9.280;2023-10-13T05:13:32;6.30;;;4.70;;
56102;SDS011;41970;48.774;9.280;2023-10-13T05:16:16;5.10;;;4.60;;
56102;SDS011;41970;48.774;9.280;2023-10-13T05:19:00;7.33;;;6.50;;
56102;SDS011;41970;48.774;9.280;2023-10-13T05:21:44;6.10;;;5.00;;
56102;SDS011;41970;48.774;9.280;2023-10-13T05:24:28;5.80;;;4.40;;
56102;SDS011;41970;48.774;9.280;2023-10-13T05:27:12;7.20;;;6.00;;
56102;SDS011;41970;48.774;9.280;2023-10-13T05:29:57;8.73;;;5.73;;
56102;SDS011;41970;48.774;9.280;2023-10-13T05:32:41;9.30;;;5.27;;
56102;SDS011;41970;48.774;9.280;2023-10-13T05:35:25;6.13;;;4.77;;
56102;SDS011;41970;48.774;9.280;2023-10-13T05:38:09;6.33;;;5.73;;
56102;SDS011;41970;48.774;9.280;2023-10-13T05:43:55;7.70;;;5.23;;
56102;SDS011;41970;48.774;9.280;2023-10-13T05:46:39;9.20;;;5.50;;
56102;SDS011;41970;48.774;9.280;2023-10-13T05:49:14;8.23;;;5.60;;
56102;SDS011;41970;48.774;9.280;2023-10-13T05:51:43;8.00;;;5.40;;
56102;SDS011;41970;48.774;9.280;2023-10-13T05:54:33;10.00;;;4.97;;
56102;SDS011;41970;48.774;9.280;2023-10-13T05:57:17;5.50;;;5.00;;
56102;SDS011;41970;48.774;9.280;2023-10-13T06:00:05;5.50;;;5.00;;
56102;SDS011;41970;48.774;9.280;2023-10-13T06:02:50;8.37;;;5.00;;
56102;SDS011;41970;48.774;9.280;2023-10-13T06:05:34;8.60;;;5.57;;
56102;SDS011;41970;48.774;9.280;2023-10-13T06:08:18;6.10;;;4.97;;
56102;SDS011;41970;48.774;9.280;2023-10-13T06:11:02;8.23;;;5.50;;
56102;SDS011;41970;48.774;9.280;2023-10-13T06:13:47;5.67;;;5.17;;
56102;SDS011;41970;48.774;9.280;2023-10-13T06:16:32;9.80;;;5.00;;
56102;SDS011;41970;48.774;9.280;2023-10-13T06:19:16;11.10;;;5.20;;
56102;SDS011;41970;48.774;9.280;2023-10-13T06:22:00;8.27;;;5.90;;
56102;SDS011;41970;48.774;9.280;2023-10-13T06:24:44;6.43;;;4.47;;
56102;SDS011;41970;48.774;9.280;2023-10-13T06:27:29;8.20;;;5.83;;
56102;SDS011;41970;48.774;9.280;2023-10-13T06:30:13;9.00;;;5.70;;
56102;SDS011;41970;48.774;9.280;2023-10-13T06:32:38;6.33;;;4.73;;
56102;SDS011;41970;48.774;9.280;2023-10-13T06:35:07;11.97;;;5.27;;
56102;SDS011;41970;48.774;9.280;2023-10-13T06:37:33;9.60;;;5.43;;
56102;SDS011;41970;48.774;9.280;2023-10-13T06:40:08;7.43;;;6.00;;
56102;SDS011;41970;48.774;9.280;2023-10-13T06:42:51;13.17;;;6.00;;
56102;SDS011;41970;48.774;9.280;2023-10-13T06:45:18;7.80;;;5.30;;
56102;SDS011;41970;48.774;9.280;2023-10-13T06:47:46;11.20;;;5.30;;
56102;SDS011;41970;48.774;9.280;2023-10-13T06:50:12;14.73;;;5.87;;
56102;SDS011;41970;48.774;9.280;2023-10-13T06:52:44;8.90;;;4.67;;
56102;SDS011;41970;48.774;9.280;2023-10-13T06:55:11;7.00;;;5.27;;
56102;SDS011;41970;48.774;9.280;2023-10-13T06:57:42;8.10;;;5.40;;
56102;SDS011;41970;48.774;9.280;2023-10-13T07:00:09;5.43;;;4.83;;
56102;SDS011;41970;48.774;9.280;2023-10-13T07:02:45;5.73;;;4.47;;
56102;SDS011;41970;48.774;9.280;2023-10-13T07:05:12;8.70;;;4.57;;
56102;SDS011;41970;48.774;9.280;2023-10-13T07:07:39;4.90;;;4.40;;
56102;SDS011;41970;48.774;9.280;2023-10-13T07:10:09;5.50;;;4.27;;
56102;SDS011;41970;48.774;9.280;2023-10-13T07:12:37;5.00;;;4.10;;
56102;SDS011;41970;48.774;9.280;2023-10-13T07:15:09;4.67;;;3.80;;
56102;SDS011;41970;48.774;9.280;2023-10-13T07:17:41;5.60;;;4.10;;
56102;SDS011;41970;48.774;9.280;2023-10-13T07:20:09;7.00;;;4.23;;
56102;SDS011;41970;48.774;9.280;2023-10-13T07:22:53;7.20;;;4.30;;
56102;SDS011;41970;48.774;9.280;2023-10-13T07:25:36;7.30;;;3.50;;
56102;SDS011;41970;48.774;9.280;2023-10-13T07:28:03;6.43;;;3.87;;
56102;SDS011;41970;48.774;9.280;2023-10-13T07:30:29;7.87;;;5.23;;
56102;SDS011;41970;48.774;9.280;2023-10-13T07:33:04;7.87;;;4.73;;
56102;SDS011;41970;48.774;9.280;2023-10-13T07:35:31;10.30;;;4.50;;
56102;SDS011;41970;48.774;9.280;2023-10-13T07:38:01;9.47;;;4.50;;
56102;SDS011;41970;48.774;9.280;2023-10-13T07:40:27;6.27;;;4.30;;
56102;SDS011;41970;48.774;9.280;2023-10-13T07:42:53;8.90;;;4.10;;
56102;SDS011;41970;48.774;9.280;2023-10-13T07:45:29;5.57;;;3.77;;
56102;SDS011;41970;48.774;9.280;2023-10-13T07:48:02;7.43;;;5.13;;
56102;SDS011;41970;48.774;9.280;2023-10-13T07:50:38;4.17;;;3.60;;
56102;SDS011;41970;48.774;9.280;2023-10-13T07:53:04;5.70;;;5.00;;
56102;SDS011;41970;48.774;9.280;2023-10-13T07:55:44;4.97;;;4.43;;
56102;SDS011;41970;48.774;9.280;2023-10-13T07:58:11;7.07;;;4.23;;
56102;SDS011;41970;48.774;9.280;2023-10-13T08:00:38;6.93;;;4.77;;
56102;SDS011;41970;48.774;9.280;2023-10-13T08:03:11;6.03;;;4.50;;
56102;SDS011;41970;48.774;9.280;2023-10-13T08:05:40;10.70;;;5.20;;
56102;SDS011;41970;48.774;9.280;2023-10-13T08:08:28;7.80;;;4.53;;
56102;SDS011;41970;48.774;9.280;2023-10-13T08:11:06;10.30;;;4.67;;
56102;SDS011;41970;48.774;9.280;2023-10-13T08:14:02;5.50;;;4.03;;
56102;SDS011;41970;48.774;9.280;2023-10-13T08:16:55;8.00;;;4.40;;
56102;SDS011;41970;48.774;9.280;2023-10-13T08:19:31;8.80;;;4.37;;
56102;SDS011;41970;48.774;9.280;2023-10-13T08:22:05;7.10;;;4.43;;
56102;SDS011;41970;48.774;9.280;2023-10-13T08:24:43;10.30;;;4.83;;
56102;SDS011;41970;48.774;9.280;2023-10-13T08:27:09;11.03;;;5.10;;
56102;SDS011;41970;48.774;9.280;2023-10-13T08:29:46;3.93;;;3.43;;
56102;SDS011;41970;48.774;9.280;2023-10-13T08:32:24;9.17;;;4.70;;
56102;SDS011;41970;48.774;9.280;2023-10-13T08:34:54;10.73;;;5.00;;
56102;SDS011;41970;48.774;9.280;2023-10-13T08:37:20;7.10;;;4.63;;
56102;SDS011;41970;48.774;9.280;2023-10-13T08:39:53;7.80;;;4.33;;
56102;SDS011;41970;48.774;9.280;2023-10-13T08:42:30;6.93;;;4.33;;
56102;SDS011;41970;48.774;9.280;2023-10-13T08:45:07;6.27;;;4.47;;
56102;SDS011;41970;48.774;9.280;2023-10-13T08:48:07;8.20;;;4.53;;
56102;SDS011;41970;48.774;9.280;2023-10-13T08:50:44;7.80;;;5.17;;
56102;SDS011;41970;48.774;9.280;2023-10-13T08:56:00;9.83;;;5.33;;
56102;SDS011;41970;48.774;9.280;2023-10-13T08:58:48;7.50;;;4.73;;
56102;SDS011;41970;48.774;9.280;2023-10-13T09:01:21;7.43;;;4.73;;
56102;SDS011;41970;48.774;9.280;2023-10-13T09:04:14;8.53;;;5.07;;
56102;SDS011;41970;48.774;9.280;2023-10-13T09:06:50;6.70;;;4.83;;
56102;SDS011;41970;48.774;9.280;2023-10-13T09:12:30;6.20;;;5.10;;
56102;SDS011;41970;48.774;9.280;2023-10-13T09:15:02;8.00;;;4.37;;
56102;SDS011;41970;48.774;9.280;2023-10-13T09:17:50;5.00;;;3.93;;
56102;SDS011;41970;48.774;9.280;2023-10-13T09:20:15;8.57;;;4.50;;
56102;SDS011;41970;48.774;9.280;2023-10-13T09:22:48;7.93;;;4.07;;
56102;SDS011;41970;48.774;9.280;2023-10-13T09:25:27;6.30;;;4.70;;
56102;SDS011;41970;48.774;9.280;2023-10-13T09:28:00;8.20;;;5.33;;
56102;SDS011;41970;48.774;9.280;2023-10-13T09:30:27;5.57;;;4.37;;
56102;SDS011;41970;48.774;9.280;2023-10-13T09:33:03;6.03;;;4.20;;
56102;SDS011;41970;48.774;9.280;2023-10-13T09:35:41;7.10;;;5.00;;
56102;SDS011;41970;48.774;9.280;2023-10-13T09:38:15;6.23;;;4.00;;
56102;SDS011;41970;48.774;9.280;2023-10-13T09:40:41;7.50;;;4.77;;
56102;SDS011;41970;48.774;9.280;2023-10-13T09:43:26;5.47;;;3.73;;
56102;SDS011;41970;48.774;9.280;2023-10-13T09:45:58;7.20;;;4.67;;
56102;SDS011;41970;48.774;9.280;2023-10-13T09:48:43;5.60;;;3.80;;
56102;SDS011;41970;48.774;9.280;2023-10-13T09:51:17;8.27;;;3.60;;
56102;SDS011;41970;48.774;9.280;2023-10-13T09:57:24;8.53;;;4.00;;
56102;SDS011;41970;48.774;9.280;2023-10-13T09:59:48;9.63;;;3.73;;
56102;SDS011;41970;48.774;9.280;2023-10-13T10:02:17;6.20;;;3.80;;
56102;SDS011;41970;48.774;9.280;2023-10-13T10:04:53;5.40;;;4.27;;
56102;SDS011;41970;48.774;9.280;2023-10-13T10:07:36;7.33;;;4.27;;
56102;SDS011;41970;48.774;9.280;2023-10-13T10:10:04;15.03;;;3.83;;
56102;SDS011;41970;48.774;9.280;2023-10-13T10:15:25;11.50;;;4.50;;
56102;SDS011;41970;48.774;9.280;2023-10-13T10:17:59;6.13;;;3.77;;
56102;SDS011;41970;48.774;9.280;2023-10-13T10:20:32;6.37;;;3.67;;
56102;SDS011;41970;48.774;9.280;2023-10-13T10:23:10;7.00;;;3.50;;
56102;SDS011;41970;48.774;9.280;2023-10-13T10:25:48;6.30;;;3.40;;
56102;SDS011;41970;48.774;9.280;2023-10-13T10:28:16;4.77;;;4.23;;
56102;SDS011;41970;48.774;9.280;2023-10-13T10:30:44;8.13;;;3.37;;
56102;SDS011;41970;48.774;9.280;2023-10-13T10:33:11;5.50;;;3.20;;
56102;SDS011;41970;48.774;9.280;2023-10-13T10:35:40;5.97;;;3.57;;
56102;SDS011;41970;48.774;9.280;2023-10-13T10:38:10;6.23;;;3.17;;
56102;SDS011;41970;48.774;9.280;2023-10-13T10:41:02;4.47;;;3.40;;
56102;SDS011;41970;48.774;9.280;2023-10-13T10:43:36;6.20;;;3.53;;
56102;SDS011;41970;48.774;9.280;2023-10-13T10:46:17;5.83;;;3.13;;
56102;SDS011;41970;48.774;9.280;2023-10-13T10:48:47;5.90;;;3.80;;
56102;SDS011;41970;48.774;9.280;2023-10-13T10:51:14;8.57;;;3.70;;
56102;SDS011;41970;48.774;9.280;2023-10-13T10:53:50;9.03;;;3.00;;
56102;SDS011;41970;48.774;9.280;2023-10-13T10:56:23;5.43;;;3.30;;
56102;SDS011;41970;48.774;9.280;2023-10-13T10:59:03;5.77;;;3.33;;
56102;SDS011;41970;48.774;9.280;2023-10-13T11:01:30;7.90;;;4.43;;
56102;SDS011;41970;48.774;9.280;2023-10-13T11:04:12;6.00;;;3.63;;
56102;SDS011;41970;48.774;9.280;2023-10-13T11:06:48;8.70;;;3.60;;
56102;SDS011;41970;48.774;9.280;2023-10-13T11:09:28;6.90;;;3.80;;
56102;SDS011;41970;48.774;9.280;2023-10-13T11:12:14;5.73;;;3.10;;
56102;SDS011;41970;48.774;9.280;2023-10-13T11:14:44;7.30;;;3.70;;
56102;SDS011;41970;48.774;9.280;2023-10-13T11:17:22;6.17;;;3.00;;
56102;SDS011;41970;48.774;9.280;2023-10-13T11:20:12;5.63;;;3.57;;
56102;SDS011;41970;48.774;9.280;2023-10-13T11:22:41;8.20;;;3.70;;
56102;SDS011;41970;48.774;9.280;2023-10-13T11:25:33;4.40;;;2.73;;
56102;SDS011;41970;48.774;9.280;2023-10-13T11:28:15;6.57;;;3.80;;
56102;SDS011;41970;48.774;9.280;2023-10-13T11:30:45;7.00;;;3.10;;
56102;SDS011;41970;48.774;9.280;2023-10-13T11:33:16;4.37;;;3.20;;
56102;SDS011;41970;48.774;9.280;2023-10-13T11:35:53;5.47;;;2.90;;
56102;SDS011;41970;48.774;9.280;2023-10-13T11:38:30;6.57;;;3.30;;
56102;SDS011;41970;48.774;9.280;2023-10-13T11:41:16;5.03;;;3.90;;
56102;SDS011;41970;48.774;9.280;2023-10-13T11:43:47;5.17;;;3.60;;
56102;SDS011;41970;48.774;9.280;2023-10-13T11:46:15;5.57;;;3.80;;
56102;SDS011;41970;48.774;9.280;2023-10-13T11:48:42;3.73;;;3.00;;
56102;SDS011;41970;48.774;9.280;2023-10-13T11:51:10;6.87;;;3.87;;
56102;SDS011;41970;48.774;9.280;2023-10-13T11:53:49;6.93;;;3.87;;
56102;SDS011;41970;48.774;9.280;2023-10-13T11:56:18;6.43;;;3.50;;
56102;SDS011;41970;48.774;9.280;2023-10-13T11:58:48;6.10;;;3.87;;
56102;SDS011;41970;48.774;9.280;2023-10-13T12:01:14;5.77;;;3.60;;
56102;SDS011;41970;48.774;9.280;2023-10-13T12:03:44;4.47;;;3.10;;
56102;SDS011;41970;48.774;9.280;2023-10-13T12:06:30;7.43;;;3.80;;
56102;SDS011;41970;48.774;9.280;2023-10-13T12:08:59;5.00;;;3.00;;
56102;SDS011;41970;48.774;9.280;2023-10-13T12:11:39;5.83;;;2.60;;
56102;SDS011;41970;48.774;9.280;2023-10-13T12:14:10;8.47;;;3.30;;
56102;SDS011;41970;48.774;9.280;2023-10-13T12:16:51;4.87;;;3.27;;
56102;SDS011;41970;48.774;9.280;2023-10-13T12:19:20;6.40;;;3.30;;
56102;SDS011;41970;48.774;9.280;2023-10-13T12:21:50;5.03;;;3.40;;
56102;SDS011;41970;48.774;9.280;2023-10-13T12:24:19;6.03;;;3.43;;
56102;SDS011;41970;48.774;9.280;2023-10-13T12:27:01;3.60;;;2.77;;
56102;SDS011;41970;48.774;9.280;2023-10-13T12:29:28;5.70;;;3.57;;
56102;SDS011;41970;48.774;9.280;2023-10-13T12:31:57;5.30;;;3.63;;
56102;SDS011;41970;48.774;9.280;2023-10-13T12:34:39;5.13;;;3.40;;
56102;SDS011;41970;48.774;9.280;2023-10-13T12:37:25;7.90;;;3.33;;
56102;SDS011;41970;48.774;9.280;2023-10-13T12:40:07;6.77;;;3.00;;
56102;SDS011;41970;48.774;9.280;2023-10-13T12:42:53;3.83;;;2.80;;
56102;SDS011;41970;48.774;9.280;2023-10-13T12:45:40;6.10;;;3.60;;
56102;SDS011;41970;48.774;9.280;2023-10-13T12:48:25;9.70;;;3.70;;
56102;SDS011;41970;48.774;9.280;2023-10-13T12:51:09;6.57;;;3.50;;
56102;SDS011;41970;48.774;9.280;2023-10-13T12:53:53;4.50;;;3.00;;
56102;SDS011;41970;48.774;9.280;2023-10-13T12:56:20;4.80;;;3.60;;
56102;SDS011;41970;48.774;9.280;2023-10-13T12:58:53;10.20;;;3.90;;
56102;SDS011;41970;48.774;9.280;2023-10-13T13:01:23;3.97;;;3.20;;
56102;SDS011;41970;48.774;9.280;2023-10-13T13:03:52;3.50;;;3.20;;
56102;SDS011;41970;48.774;9.280;2023-10-13T13:06:30;4.23;;;3.40;;
56102;SDS011;41970;48.774;9.280;2023-10-13T13:11:22;6.93;;;4.17;;
56102;SDS011;41970;48.774;9.280;2023-10-13T13:13:48;6.70;;;4.00;;
56102;SDS011;41970;48.774;9.280;2023-10-13T13:16:18;8.80;;;3.70;;
56102;SDS011;41970;48.774;9.280;2023-10-13T13:18:45;4.70;;;3.07;;
56102;SDS011;41970;48.774;9.280;2023-10-13T13:21:11;5.10;;;3.40;;
56102;SDS011;41970;48.774;9.280;2023-10-13T13:23:45;3.90;;;3.17;;
56102;SDS011;41970;48.774;9.280;2023-10-13T13:26:11;10.27;;;3.50;;
56102;SDS011;41970;48.774;9.280;2023-10-13T13:28:46;7.43;;;3.23;;
56102;SDS011;41970;48.774;9.280;2023-10-13T13:31:19;6.20;;;2.97;;
56102;SDS011;41970;48.774;9.280;2023-10-13T13:33:51;3.63;;;3.20;;
56102;SDS011;41970;48.774;9.280;2023-10-13T13:36:17;6.10;;;4.03;;
56102;SDS011;41970;48.774;9.280;2023-10-13T13:38:44;9.73;;;3.47;;
56102;SDS011;41970;48.774;9.280;2023-10-13T13:41:19;7.33;;;3.53;;
56102;SDS011;41970;48.774;9.280;2023-10-13T13:43:48;9.13;;;3.43;;
56102;SDS011;41970;48.774;9.280;2023-10-13T13:46:15;3.93;;;3.40;;
56102;SDS011;41970;48.774;9.280;2023-10-13T13:48:52;6.43;;;2.77;;
56102;SDS011;41970;48.774;9.280;2023-10-13T13:51:29;3.57;;;2.77;;
56102;SDS011;41970;48.774;9.280;2023-10-13T13:53:57;6.20;;;3.40;;
56102;SDS011;41970;48.774;9.280;2023-10-13T13:56:24;3.03;;;2.60;;
56102;SDS011;41970;48.774;9.280;2023-10-13T13:58:53;4.17;;;3.10;;
56102;SDS011;41970;48.774;9.280;2023-10-13T14:01:32;5.23;;;3.50;;
56102;SDS011;41970;48.774;9.280;2023-10-13T14:04:00;4.57;;;3.60;;
56102;SDS011;41970;48.774;9.280;2023-10-13T14:06:28;4.33;;;2.80;;
56102;SDS011;41970;48.774;9.280;2023-10-13T14:08:55;4.70;;;3.17;;
56102;SDS011;41970;48.774;9.280;2023-10-13T14:11:25;5.10;;;3.33;;
56102;SDS011;41970;48.774;9.280;2023-10-13T14:14:07;3.83;;;3.23;;
56102;SDS011;41970;48.774;9.280;2023-10-13T14:16:40;4.03;;;3.17;;
56102;SDS011;41970;48.774;9.280;2023-10-13T14:19:11;9.40;;;3.00;;
56102;SDS011;41970;48.774;9.280;2023-10-13T14:21:37;3.93;;;3.43;;
56102;SDS011;41970;48.774;9.280;2023-10-13T14:24:03;4.63;;;2.90;;
56102;SDS011;41970;48.774;9.280;2023-10-13T14:26:38;4.87;;;2.90;;
56102;SDS011;41970;48.774;9.280;2023-10-13T14:29:04;5.10;;;3.13;;
56102;SDS011;41970;48.774;9.280;2023-10-13T14:31:39;3.97;;;2.60;;
56102;SDS011;41970;48.774;9.280;2023-10-13T14:34:06;4.27;;;3.87;;
56102;SDS011;41970;48.774;9.280;2023-10-13T14:36:32;4.40;;;3.13;;
56102;SDS011;41970;48.774;9.280;2023-10-13T14:39:01;4.53;;;2.90;;
56102;SDS011;41970;48.774;9.280;2023-10-13T14:41:34;3.47;;;3.10;;
56102;SDS011;41970;48.774;9.280;2023-10-13T14:44:00;6.50;;;3.13;;
56102;SDS011;41970;48.774;9.280;2023-10-13T14:46:30;5.03;;;3.23;;
56102;SDS011;41970;48.774;9.280;2023-10-13T14:48:56;3.73;;;2.60;;
56102;SDS011;41970;48.774;9.280;2023-10-13T14:51:22;6.33;;;3.77;;
56102;SDS011;41970;48.774;9.280;2023-10-13T14:53:50;6.83;;;3.10;;
56102;SDS011;41970;48.774;9.280;2023-10-13T14:56:21;3.53;;;3.07;;
56102;SDS011;41970;48.774;9.280;2023-10-13T14:58:50;3.60;;;2.87;;
56102;SDS011;41970;48.774;9.280;2023-10-13T15:01:17;4.83;;;2.80;;
56102;SDS011;41970;48.774;9.280;2023-10-13T15:03:45;3.63;;;3.33;;
56102;SDS011;41970;48.774;9.280;2023-10-13T15:06:21;4.40;;;3.57;;
56102;SDS011;41970;48.774;9.280;2023-10-13T15:08:55;4.30;;;3.10;;
56102;SDS011;41970;48.774;9.280;2023-10-13T15:11:22;4.90;;;2.47;;
56102;SDS011;41970;48.774;9.280;2023-10-13T15:13:55;4.20;;;2.70;;
56102;SDS011;41970;48.774;9.280;2023-10-13T15:16:25;3.67;;;3.30;;
56102;SDS011;41970;48.774;9.280;2023-10-13T15:18:54;4.87;;;2.73;;
56102;SDS011;41970;48.774;9.280;2023-10-13T15:21:25;5.53;;;2.57;;
56102;SDS011;41970;48.774;9.280;2023-10-13T15:23:55;5.47;;;3.00;;
56102;SDS011;41970;48.774;9.280;2023-10-13T15:26:42;6.60;;;2.40;;
56102;SDS011;41970;48.774;9.280;2023-10-13T15:29:22;4.80;;;3.23;;
56102;SDS011;41970;48.774;9.280;2023-10-13T15:31:51;5.73;;;3.37;;
56102;SDS011;41970;48.774;9.280;2023-10-13T15:34:23;4.07;;;2.63;;
56102;SDS011;41970;48.774;9.280;2023-10-13T15:36:51;5.67;;;3.47;;
56102;SDS011;41970;48.774;9.280;2023-10-13T15:39:19;4.20;;;2.80;;
56102;SDS011;41970;48.774;9.280;2023-10-13T15:41:49;7.47;;;3.50;;
56102;SDS011;41970;48.774;9.280;2023-10-13T15:44:19;3.03;;;2.43;;
56102;SDS011;41970;48.774;9.280;2023-10-13T15:46:51;3.60;;;3.30;;
56102;SDS011;41970;48.774;9.280;2023-10-13T15:49:18;4.20;;;2.80;;
56102;SDS011;41970;48.774;9.280;2023-10-13T15:51:44;5.83;;;2.57;;
56102;SDS011;41970;48.774;9.280;2023-10-13T15:54:10;4.80;;;2.50;;
56102;SDS011;41970;48.774;9.280;2023-10-13T15:56:46;7.20;;;4.20;;